Time;durP1;ratioP1;P1;durP2;ratioP2;P2;SDS_P1;SDS_P2;PMS_P1;PMS_P2;Temp;Humidity;BMP_temperature;BMP_pressure;BME280_temperature;BME280_humidity;BME280_pressure;Samples;Min_cycle;Max_cycle;Signal;HPM_P1;HPM_P2
2022/01/22 00:01:35;;;;;;;9.70;7.30;;;2.40;99.90;;;;;;4932538;29;20731;-77
2022/01/22 00:04:03;;;;;;;9.30;8.32;;;2.40;99.90;;;;;;4932657;29;20790;-77
2022/01/22 00:06:30;;;;;;;9.95;8.40;;;2.50;99.90;;;;;;4937950;29;20233;-77
2022/01/22 00:08:57;;;;;;;11.52;7.57;;;2.50;99.90;;;;;;4932993;29;20194;-77
2022/01/22 00:11:29;;;;;;;8.55;7.43;;;2.50;99.90;;;;;;4933103;29;20221;-76
2022/01/22 00:16:40;;;;;;;9.63;7.35;;;2.70;99.90;;;;;;4931671;29;20206;-75
2022/01/22 00:19:10;;;;;;;8.32;7.53;;;2.70;99.90;;;;;;4932985;29;20208;-75
2022/01/22 00:21:36;;;;;;;8.95;8.02;;;2.70;99.90;;;;;;4931631;29;20203;-75
2022/01/22 00:24:05;;;;;;;7.72;7.03;;;2.80;99.90;;;;;;4935542;29;20309;-76
2022/01/22 00:26:32;;;;;;;8.75;7.85;;;2.80;99.90;;;;;;4934157;29;20194;-76
2022/01/22 00:28:59;;;;;;;9.05;7.68;;;2.90;99.90;;;;;;4936243;29;20294;-75
2022/01/22 00:31:26;;;;;;;11.95;7.97;;;2.90;99.90;;;;;;4935365;29;20196;-76
2022/01/22 00:33:53;;;;;;;10.35;8.55;;;2.90;99.90;;;;;;4943185;29;20236;-76
2022/01/22 00:36:22;;;;;;;12.32;8.95;;;3.00;99.90;;;;;;4933573;29;20206;-76
2022/01/22 00:38:48;;;;;;;9.25;8.35;;;3.10;99.90;;;;;;4922014;29;20207;-76
2022/01/22 00:41:15;;;;;;;9.30;8.40;;;3.10;99.90;;;;;;4935535;29;20213;-76
2022/01/22 00:43:42;;;;;;;11.20;8.23;;;3.10;99.90;;;;;;4936464;29;20326;-77
2022/01/22 00:46:09;;;;;;;10.32;8.82;;;3.20;99.90;;;;;;4929209;29;20201;-75
2022/01/22 00:48:36;;;;;;;11.25;9.50;;;3.30;99.90;;;;;;4935508;29;20243;-76
2022/01/22 00:51:03;;;;;;;10.35;8.60;;;3.30;99.90;;;;;;4934891;29;20205;-76
2022/01/22 00:53:32;;;;;;;10.88;8.52;;;3.40;99.90;;;;;;4935805;29;20223;-77
2022/01/22 00:55:59;;;;;;;11.45;9.23;;;3.40;99.90;;;;;;4933700;29;20208;-76
2022/01/22 00:58:26;;;;;;;11.30;8.77;;;3.50;99.90;;;;;;4935897;29;20206;-76
2022/01/22 01:00:53;;;;;;;12.48;9.40;;;3.50;99.90;;;;;;4934602;29;20237;-76
2022/01/22 01:03:20;;;;;;;12.30;8.80;;;3.40;99.90;;;;;;4938464;29;20900;-76
2022/01/22 01:05:47;;;;;;;11.00;8.35;;;3.40;99.90;;;;;;4928486;29;20269;-76
2022/01/22 01:08:14;;;;;;;10.40;9.30;;;3.40;99.90;;;;;;4933650;29;20422;-76
2022/01/22 01:10:42;;;;;;;10.23;8.80;;;3.40;99.90;;;;;;4933655;29;20555;-76
2022/01/22 01:13:13;;;;;;;12.15;9.00;;;3.40;99.90;;;;;;4935854;29;20719;-76
2022/01/22 01:15:43;;;;;;;14.80;8.88;;;3.40;99.90;;;;;;4932392;29;20194;-75
2022/01/22 01:32:20;;;;;;;11.50;9.60;;;3.40;99.90;;;;;;4932103;29;20206;-76
2022/01/22 01:34:50;;;;;;;13.30;9.45;;;3.30;99.90;;;;;;4929596;29;20322;-77
2022/01/22 01:37:19;;;;;;;14.00;9.80;;;3.30;99.90;;;;;;4932334;29;20210;-75
2022/01/22 01:39:50;;;;;;;11.80;10.55;;;3.30;99.90;;;;;;4930122;29;20234;-76
2022/01/22 01:42:24;;;;;;;10.35;9.30;;;3.30;99.90;;;;;;4931020;29;20211;-76
2022/01/22 01:44:51;;;;;;;13.43;10.57;;;3.30;99.90;;;;;;4938994;28;20308;-77
2022/01/22 01:47:19;;;;;;;12.63;10.00;;;3.30;99.90;;;;;;4933062;29;20585;-76
2022/01/22 01:49:46;;;;;;;13.80;9.77;;;3.30;99.90;;;;;;4933148;29;20605;-76
2022/01/22 01:52:19;;;;;;;12.95;11.02;;;3.30;99.90;;;;;;4928426;29;20299;-76
2022/01/22 01:54:59;;;;;;;12.68;9.95;;;3.40;99.90;;;;;;4933103;29;20226;-76
2022/01/22 02:00:13;;;;;;;13.40;10.27;;;3.40;99.90;;;;;;4929821;29;20209;-76
2022/01/22 02:02:41;;;;;;;13.57;11.00;;;3.40;99.90;;;;;;4933650;29;20212;-76
2022/01/22 02:05:11;;;;;;;11.05;9.55;;;3.40;99.90;;;;;;4938316;29;20194;-76
2022/01/22 02:07:40;;;;;;;13.27;11.13;;;3.40;99.90;;;;;;4933522;29;20698;-76
2022/01/22 02:10:11;;;;;;;12.95;10.45;;;3.30;99.90;;;;;;4932432;29;20198;-76
2022/01/22 02:23:43;;;;;;;12.88;10.70;;;3.30;99.90;;;;;;4938073;29;20219;-76
2022/01/22 02:26:13;;;;;;;13.07;10.82;;;3.40;99.90;;;;;;4933251;29;20662;-76
2022/01/22 02:28:41;;;;;;;14.18;11.13;;;3.30;99.90;;;;;;4937148;29;20591;-75
2022/01/22 02:31:14;;;;;;;14.93;11.60;;;3.30;99.90;;;;;;4932886;29;20198;-75
2022/01/22 02:33:50;;;;;;;15.23;11.68;;;3.30;99.90;;;;;;4934551;29;20235;-75
2022/01/22 02:36:22;;;;;;;16.48;13.32;;;3.20;99.90;;;;;;4932933;29;20198;-76
2022/01/22 02:38:57;;;;;;;12.65;10.90;;;3.30;99.90;;;;;;4937896;29;20199;-76
2022/01/22 02:41:25;;;;;;;12.85;10.70;;;3.30;99.90;;;;;;4932322;29;20205;-76
2022/01/22 02:43:53;;;;;;;14.25;11.93;;;3.30;99.90;;;;;;4933711;29;20706;-76
2022/01/22 02:46:23;;;;;;;16.00;12.85;;;3.30;99.90;;;;;;4932564;29;20551;-76
2022/01/22 02:48:51;;;;;;;14.80;11.68;;;3.30;99.90;;;;;;4934479;29;20232;-76
2022/01/22 02:51:18;;;;;;;18.30;11.85;;;3.30;99.90;;;;;;4930511;29;20201;-76
2022/01/22 02:53:45;;;;;;;15.07;12.40;;;3.30;99.90;;;;;;4931246;29;20258;-76
2022/01/22 02:56:13;;;;;;;18.95;12.15;;;3.30;99.90;;;;;;4932869;29;20261;-76
2022/01/22 02:58:40;;;;;;;15.48;11.50;;;3.20;99.90;;;;;;4941059;29;20230;-76
2022/01/22 03:01:08;;;;;;;16.45;13.40;;;3.20;99.90;;;;;;4933097;29;20788;-76
2022/01/22 03:03:38;;;;;;;15.60;12.65;;;3.20;99.90;;;;;;4931379;29;20218;-75
2022/01/22 03:06:06;;;;;;;13.43;11.95;;;3.20;99.90;;;;;;4932400;29;20271;-75
2022/01/22 03:08:33;;;;;;;14.25;12.25;;;3.20;99.90;;;;;;4935052;29;20705;-76
2022/01/22 03:11:04;;;;;;;15.05;12.93;;;3.20;99.90;;;;;;4931087;29;20206;-76
2022/01/22 03:14:24;;;;;;;18.55;12.75;;;3.10;99.90;;;;;;4926426;29;20275;-76
2022/01/22 03:17:08;;;;;;;15.95;13.20;;;3.20;99.90;;;;;;4930829;29;20202;-75
2022/01/22 03:19:58;;;;;;;16.92;14.15;;;3.20;99.90;;;;;;4937879;29;20223;-75
2022/01/22 03:22:32;;;;;;;18.38;12.80;;;3.20;99.90;;;;;;4929084;29;20194;-76
2022/01/22 03:27:43;;;;;;;18.30;13.82;;;3.10;99.90;;;;;;4931318;29;20712;-76
2022/01/22 03:30:12;;;;;;;15.90;12.50;;;3.10;99.90;;;;;;4932587;29;20204;-75
2022/01/22 03:32:42;;;;;;;17.90;14.00;;;3.10;99.90;;;;;;4930617;29;20230;-76
2022/01/22 03:35:13;;;;;;;15.52;12.70;;;3.10;99.90;;;;;;4925919;29;20205;-76
2022/01/22 03:37:41;;;;;;;16.08;13.48;;;3.10;99.90;;;;;;4932458;29;20235;-75
2022/01/22 03:40:09;;;;;;;14.85;12.82;;;3.20;99.90;;;;;;4930084;29;20201;-75
2022/01/22 03:42:36;;;;;;;17.92;13.43;;;3.10;99.90;;;;;;4924422;29;20444;-75
2022/01/22 03:45:04;;;;;;;16.33;13.35;;;3.10;99.90;;;;;;4930753;29;20280;-75
2022/01/22 03:47:33;;;;;;;17.95;13.93;;;3.10;99.90;;;;;;4931960;29;20237;-76
2022/01/22 03:50:00;;;;;;;20.90;14.15;;;3.20;99.90;;;;;;4931839;29;20233;-75
2022/01/22 03:52:27;;;;;;;15.95;12.90;;;3.20;99.90;;;;;;4933753;29;20306;-75
2022/01/22 03:54:54;;;;;;;14.73;12.90;;;3.20;99.90;;;;;;4931389;29;20299;-75
2022/01/22 03:57:22;;;;;;;16.38;13.18;;;3.20;99.90;;;;;;4933533;29;20290;-75
2022/01/22 03:59:50;;;;;;;15.57;13.82;;;3.20;99.90;;;;;;4934777;29;20204;-75
2022/01/22 04:05:03;;;;;;;14.52;13.10;;;3.20;99.90;;;;;;4919409;29;20213;-75
2022/01/22 04:08:06;;;;;;;17.33;13.90;;;3.20;99.90;;;;;;4935347;29;20898;-75
2022/01/22 04:10:33;;;;;;;16.92;13.52;;;3.20;99.90;;;;;;4935390;29;20283;-75
2022/01/22 04:13:03;;;;;;;16.65;13.18;;;3.20;99.90;;;;;;4935784;29;20320;-74
2022/01/22 04:15:33;;;;;;;15.80;14.25;;;3.20;99.90;;;;;;4933991;29;20232;-75
2022/01/22 04:26:23;;;;;;;15.55;13.95;;;3.30;99.90;;;;;;4934627;29;20199;-75
2022/01/22 04:28:50;;;;;;;15.70;14.10;;;3.20;99.90;;;;;;4935874;29;20274;-75
2022/01/22 04:31:17;;;;;;;15.23;13.43;;;3.20;99.90;;;;;;4935377;29;20747;-74
2022/01/22 04:33:44;;;;;;;18.50;14.50;;;3.20;99.90;;;;;;4935670;29;20312;-75
2022/01/22 04:36:12;;;;;;;18.52;13.55;;;3.20;99.90;;;;;;4936010;29;20197;-75
2022/01/22 04:38:40;;;;;;;17.08;14.13;;;3.20;99.90;;;;;;4936385;29;20215;-75
2022/01/22 04:41:07;;;;;;;16.67;13.85;;;3.20;99.90;;;;;;4936075;29;20201;-75
2022/01/22 04:43:37;;;;;;;16.88;13.70;;;3.30;99.90;;;;;;4937764;29;20219;-75
2022/01/22 04:46:15;;;;;;;19.17;13.90;;;3.30;99.90;;;;;;4932641;29;20295;-75
2022/01/22 04:48:51;;;;;;;18.02;14.43;;;3.30;99.90;;;;;;4936229;29;20357;-76
2022/01/22 04:56:49;;;;;;;15.75;14.10;;;3.40;99.90;;;;;;4913774;29;20217;-75
2022/01/22 04:59:17;;;;;;;20.88;13.30;;;3.40;99.90;;;;;;4935211;29;20280;-75
2022/01/22 05:01:44;;;;;;;15.88;13.60;;;3.40;99.90;;;;;;4935563;29;20202;-75
2022/01/22 05:04:11;;;;;;;15.98;13.50;;;3.40;99.90;;;;;;4939918;29;20225;-75
2022/01/22 05:06:40;;;;;;;19.20;14.75;;;3.50;99.90;;;;;;4934716;29;20210;-75
2022/01/22 05:09:06;;;;;;;16.45;13.60;;;3.40;99.90;;;;;;4929034;29;20234;-75
2022/01/22 05:11:34;;;;;;;17.35;13.85;;;3.40;99.90;;;;;;4934589;29;20203;-75
2022/01/22 05:14:01;;;;;;;19.08;13.45;;;3.40;99.90;;;;;;4942982;28;20564;-75
2022/01/22 05:16:28;;;;;;;15.35;13.63;;;3.40;99.90;;;;;;4936695;29;20207;-75
2022/01/22 05:19:00;;;;;;;16.73;12.60;;;3.40;99.90;;;;;;4933035;29;20203;-74
2022/01/22 05:21:29;;;;;;;15.77;13.75;;;3.40;99.90;;;;;;4934358;29;20659;-75
2022/01/22 05:24:01;;;;;;;14.30;12.75;;;3.50;99.90;;;;;;4931523;29;20263;-74
2022/01/22 05:32:18;;;;;;;15.77;13.95;;;3.50;99.90;;;;;;4928941;29;20681;-75
2022/01/22 05:37:29;;;;;;;15.30;13.55;;;3.50;99.90;;;;;;4933202;29;20207;-75
2022/01/22 05:39:58;;;;;;;17.10;13.73;;;3.50;99.90;;;;;;4925562;29;20200;-75
2022/01/22 05:42:24;;;;;;;18.17;14.55;;;3.40;99.90;;;;;;4929169;29;20245;-75
2022/01/22 05:44:52;;;;;;;15.77;14.10;;;3.30;99.90;;;;;;4929709;29;20203;-75
2022/01/22 05:47:22;;;;;;;15.93;14.23;;;3.30;99.90;;;;;;4920156;29;20234;-75
2022/01/22 05:49:49;;;;;;;19.35;14.65;;;3.30;99.90;;;;;;4933019;29;20947;-75
2022/01/22 05:52:23;;;;;;;16.67;14.13;;;3.30;99.90;;;;;;4934640;29;20219;-75
2022/01/22 05:55:08;;;;;;;18.90;13.48;;;3.30;99.90;;;;;;4929949;29;20289;-75
2022/01/22 06:00:21;;;;;;;15.35;13.55;;;3.20;99.90;;;;;;4927442;29;20673;-75
2022/01/22 06:02:48;;;;;;;18.48;15.00;;;3.30;99.90;;;;;;4933498;29;20231;-75
2022/01/22 06:05:15;;;;;;;18.20;14.18;;;3.30;99.90;;;;;;4933490;29;20207;-74
2022/01/22 06:07:42;;;;;;;16.05;13.68;;;3.30;99.90;;;;;;4933577;29;20206;-75
2022/01/22 06:10:17;;;;;;;16.38;14.18;;;3.30;99.90;;;;;;4933862;29;20278;-75
2022/01/22 06:12:58;;;;;;;20.48;14.95;;;3.30;99.90;;;;;;4933657;29;20303;-74
2022/01/22 06:15:25;;;;;;;17.90;14.43;;;3.20;99.90;;;;;;4934175;29;20205;-74
2022/01/22 06:17:52;;;;;;;16.65;13.90;;;3.20;99.90;;;;;;4930919;29;20651;-75
2022/01/22 06:20:19;;;;;;;18.92;13.85;;;3.20;99.90;;;;;;4933248;29;20217;-74
2022/01/22 06:22:46;;;;;;;20.35;14.65;;;3.20;99.90;;;;;;4941357;29;20715;-75
2022/01/22 06:25:13;;;;;;;20.95;14.95;;;3.20;99.90;;;;;;4935853;29;20200;-75
2022/01/22 06:27:40;;;;;;;18.40;15.02;;;3.30;99.90;;;;;;4941244;29;20317;-74
2022/01/22 06:30:10;;;;;;;16.73;13.90;;;3.30;99.90;;;;;;4932883;29;20244;-74
2022/01/22 06:32:37;;;;;;;19.90;14.07;;;3.20;99.90;;;;;;4932920;29;20222;-74
2022/01/22 06:35:05;;;;;;;18.73;14.30;;;3.20;99.90;;;;;;4932824;29;20292;-75
2022/01/22 06:37:32;;;;;;;16.45;14.45;;;3.20;99.90;;;;;;4932502;29;20718;-74
2022/01/22 06:42:44;;;;;;;16.50;13.98;;;3.10;99.90;;;;;;4939560;29;20219;-74
2022/01/22 06:45:12;;;;;;;17.13;13.77;;;3.20;99.90;;;;;;4929570;29;20734;-74
2022/01/22 06:47:40;;;;;;;14.38;12.75;;;3.10;99.90;;;;;;4931920;29;20302;-74
2022/01/22 06:50:08;;;;;;;15.15;12.52;;;3.10;99.90;;;;;;4933546;29;20238;-74
2022/01/22 06:52:37;;;;;;;19.73;12.52;;;3.10;99.90;;;;;;4933423;29;20221;-74
2022/01/22 06:55:05;;;;;;;17.60;13.80;;;3.10;99.90;;;;;;4933064;29;20612;-74
2022/01/22 06:57:32;;;;;;;15.30;13.65;;;3.20;99.90;;;;;;4932146;29;20202;-74
2022/01/22 06:59:59;;;;;;;16.17;12.80;;;3.20;99.90;;;;;;4933736;29;20209;-74
2022/01/22 07:02:28;;;;;;;16.88;13.25;;;3.20;99.90;;;;;;4933939;28;20214;-74
2022/01/22 07:04:55;;;;;;;14.85;13.25;;;3.20;99.90;;;;;;4933851;29;20206;-74
2022/01/22 07:07:22;;;;;;;15.55;12.93;;;3.20;99.90;;;;;;4941402;29;20199;-74
2022/01/22 07:09:49;;;;;;;17.23;13.32;;;3.20;99.90;;;;;;4941137;29;20354;-75
2022/01/22 07:12:16;;;;;;;16.45;11.95;;;3.30;99.90;;;;;;4931066;29;20216;-75
2022/01/22 07:14:45;;;;;;;14.38;12.60;;;3.30;99.90;;;;;;4931754;29;20210;-75
2022/01/22 07:17:13;;;;;;;14.52;12.63;;;3.40;99.90;;;;;;4926029;29;20204;-76
2022/01/22 07:19:42;;;;;;;13.88;12.23;;;3.40;99.90;;;;;;4933040;29;20202;-75
2022/01/22 07:22:30;;;;;;;12.10;9.95;;;3.40;99.90;;;;;;4923143;29;20556;-73
2022/01/22 07:24:57;;;;;;;13.90;9.93;;;3.70;99.90;;;;;;4927316;29;20202;-73
2022/01/22 07:27:24;;;;;;;13.68;11.80;;;4.00;99.90;;;;;;4929501;29;20649;-73
2022/01/22 07:29:51;;;;;;;11.18;9.60;;;4.60;99.90;;;;;;4931433;29;20321;-73
2022/01/22 07:32:27;;;;;;;11.38;10.00;;;4.50;99.90;;;;;;4943428;28;20326;-74
2022/01/22 07:34:56;;;;;;;12.52;11.23;;;4.50;99.90;;;;;;4935768;29;20283;-75
2022/01/22 07:37:23;;;;;;;12.77;11.57;;;4.40;99.90;;;;;;4936349;29;20197;-75
2022/01/22 07:39:50;;;;;;;13.90;11.35;;;4.30;99.90;;;;;;4935829;29;20203;-75
2022/01/22 07:42:17;;;;;;;13.90;11.40;;;4.20;99.90;;;;;;4935810;29;20217;-76
2022/01/22 07:44:44;;;;;;;14.40;11.95;;;4.20;99.90;;;;;;4935906;29;20204;-75
2022/01/22 07:47:11;;;;;;;13.18;11.80;;;4.10;99.90;;;;;;4936090;29;20301;-75
2022/01/22 07:49:38;;;;;;;14.23;12.23;;;4.10;99.90;;;;;;4933957;29;20630;-75
2022/01/22 07:52:08;;;;;;;14.15;11.55;;;4.10;99.90;;;;;;4934225;29;20213;-75
2022/01/22 07:54:35;;;;;;;15.70;11.98;;;4.20;99.90;;;;;;4932025;29;20277;-75
2022/01/22 07:57:03;;;;;;;14.32;12.35;;;4.10;99.90;;;;;;4935828;29;20199;-75
2022/01/22 07:59:30;;;;;;;12.85;11.45;;;4.10;99.90;;;;;;4935527;29;20675;-76
2022/01/22 08:01:57;;;;;;;15.45;11.10;;;4.10;99.90;;;;;;4926258;29;20224;-76
2022/01/22 08:04:24;;;;;;;16.17;11.90;;;4.00;99.90;;;;;;4934965;29;20203;-76
2022/01/22 08:06:52;;;;;;;15.85;13.02;;;4.00;99.90;;;;;;4935065;29;20193;-76
2022/01/22 08:09:21;;;;;;;12.25;10.95;;;3.90;99.90;;;;;;4932282;29;20227;-75
2022/01/22 08:11:48;;;;;;;14.15;12.27;;;3.80;99.90;;;;;;4933456;29;20227;-75
2022/01/22 08:14:15;;;;;;;15.88;12.30;;;3.80;99.90;;;;;;4934148;29;20204;-76
2022/01/22 08:16:43;;;;;;;14.85;12.73;;;3.70;99.90;;;;;;4932607;29;20294;-75
2022/01/22 08:19:10;;;;;;;16.10;12.77;;;3.60;99.90;;;;;;4936932;29;20213;-75
2022/01/22 08:21:38;;;;;;;14.27;12.80;;;3.70;99.90;;;;;;4933410;29;20631;-75
2022/01/22 08:24:05;;;;;;;13.82;11.50;;;3.60;99.90;;;;;;4934009;29;20203;-76
2022/01/22 08:26:39;;;;;;;14.55;11.80;;;3.60;99.90;;;;;;4930184;29;20201;-82
2022/01/22 08:29:06;;;;;;;15.07;12.48;;;3.70;99.90;;;;;;4934573;29;20227;-76
2022/01/22 08:31:48;;;;;;;12.85;11.40;;;3.70;99.90;;;;;;4933729;29;20636;-76
2022/01/22 08:36:59;;;;;;;13.95;12.13;;;3.90;99.90;;;;;;4931561;29;20354;-77
2022/01/22 08:39:27;;;;;;;12.38;11.07;;;3.90;99.90;;;;;;4929568;29;20201;-75
2022/01/22 08:41:56;;;;;;;13.63;11.48;;;3.90;99.90;;;;;;4933423;29;20226;-76
2022/01/22 08:44:23;;;;;;;14.85;11.02;;;3.90;99.90;;;;;;4930035;29;20200;-75
2022/01/22 08:46:50;;;;;;;13.63;11.75;;;3.90;99.90;;;;;;4932925;29;20730;-76
2022/01/22 08:49:17;;;;;;;13.70;12.30;;;3.90;99.90;;;;;;4932854;29;20615;-75
2022/01/22 08:51:44;;;;;;;14.10;11.43;;;3.90;99.90;;;;;;4932157;29;20632;-75
2022/01/22 08:54:12;;;;;;;13.63;12.15;;;4.00;99.90;;;;;;4934621;29;20196;-74
2022/01/22 08:56:40;;;;;;;14.27;12.50;;;3.90;99.90;;;;;;4933099;29;20635;-76
2022/01/22 08:59:10;;;;;;;13.43;11.73;;;3.90;99.90;;;;;;4929804;29;20200;-78
2022/01/22 09:01:39;;;;;;;16.27;13.00;;;3.90;99.90;;;;;;4934295;29;20305;-77
2022/01/22 09:04:06;;;;;;;16.25;12.48;;;3.80;99.90;;;;;;4934433;29;20207;-77
2022/01/22 09:06:34;;;;;;;15.88;13.15;;;3.90;99.90;;;;;;4933605;29;20227;-77
2022/01/22 09:09:08;;;;;;;15.73;11.95;;;3.80;99.90;;;;;;4923204;29;20681;-78
2022/01/22 09:11:35;;;;;;;15.88;11.65;;;3.80;99.90;;;;;;4911533;29;20304;-76
2022/01/22 09:14:04;;;;;;;15.32;11.95;;;3.80;99.90;;;;;;4932067;29;20971;-77
2022/01/22 09:16:32;;;;;;;14.07;11.70;;;3.80;99.90;;;;;;4933004;29;20602;-77
2022/01/22 09:19:05;;;;;;;13.85;11.25;;;3.80;99.90;;;;;;4931494;29;20206;-78
2022/01/22 09:21:33;;;;;;;14.57;12.38;;;3.70;99.90;;;;;;4929474;29;20218;-77
2022/01/22 09:24:00;;;;;;;13.80;12.18;;;3.80;99.90;;;;;;4931886;29;20199;-77
2022/01/22 09:26:28;;;;;;;16.80;12.27;;;3.90;99.90;;;;;;4932874;29;20267;-77
2022/01/22 09:28:57;;;;;;;17.27;12.73;;;4.00;99.90;;;;;;4932550;29;20207;-77
2022/01/22 09:31:24;;;;;;;14.10;12.65;;;3.90;99.90;;;;;;4931010;29;20232;-77
2022/01/22 09:33:55;;;;;;;13.82;12.30;;;3.90;99.90;;;;;;4923890;29;20200;-77
2022/01/22 09:36:23;;;;;;;16.60;12.95;;;3.90;99.90;;;;;;4931350;29;20212;-77
2022/01/22 09:38:50;;;;;;;14.35;11.10;;;3.80;99.90;;;;;;4931524;29;20216;-79
2022/01/22 09:41:18;;;;;;;15.20;12.65;;;3.70;99.90;;;;;;4931111;29;20305;-77
2022/01/22 09:43:46;;;;;;;17.50;13.73;;;3.70;99.90;;;;;;4931877;29;20298;-77
2022/01/22 09:46:13;;;;;;;13.35;11.60;;;3.70;99.90;;;;;;4931586;29;20209;-78
2022/01/22 09:48:42;;;;;;;16.58;12.43;;;3.80;99.90;;;;;;4932433;29;20208;-78
2022/01/22 09:51:11;;;;;;;16.00;13.10;;;3.80;99.90;;;;;;4932335;29;20259;-77
2022/01/22 09:53:39;;;;;;;16.30;13.52;;;3.90;99.90;;;;;;4938703;28;20294;-77
2022/01/22 09:56:06;;;;;;;14.63;12.70;;;3.90;99.90;;;;;;4929336;29;20219;-77
2022/01/22 09:58:34;;;;;;;16.17;12.50;;;3.80;99.90;;;;;;4932273;29;20210;-80
2022/01/22 10:01:19;;;;;;;15.48;12.73;;;3.90;99.90;;;;;;4930284;29;20313;-77
2022/01/22 10:03:46;;;;;;;13.48;12.07;;;3.90;99.90;;;;;;4930546;29;20199;-75
2022/01/22 10:06:16;;;;;;;14.43;11.23;;;4.00;99.90;;;;;;4933509;29;20204;-77
2022/01/22 10:08:43;;;;;;;14.40;12.30;;;4.00;99.90;;;;;;4931294;29;20246;-78
2022/01/22 10:11:18;;;;;;;14.48;12.05;;;4.10;99.90;;;;;;4928974;29;20239;-77
2022/01/22 10:13:46;;;;;;;15.50;11.88;;;4.20;99.90;;;;;;4931472;29;20200;-77
2022/01/22 10:16:24;;;;;;;15.07;12.35;;;4.20;99.90;;;;;;5081454;27;20570;-88
2022/01/22 10:19:12;;;;;;;14.85;12.38;;;4.10;99.90;;;;;;5059683;28;20204;-76
2022/01/22 10:21:41;;;;;;;16.83;12.95;;;4.10;99.90;;;;;;5051352;28;20315;-76
2022/01/22 10:24:34;;;;;;;29.48;21.10;;;4.20;99.90;;;;;;5045277;28;20215;-76
2022/01/22 10:27:26;;;;;;;13.93;12.63;;;4.20;99.90;;;;;;5048110;28;20287;-77
2022/01/22 10:29:56;;;;;;;19.75;15.40;;;4.20;99.90;;;;;;5043723;28;20208;-77
2022/01/22 10:32:34;;;;;;;14.25;11.57;;;4.30;99.90;;;;;;5045586;28;20220;-76
2022/01/22 10:35:07;;;;;;;13.52;11.70;;;4.40;99.90;;;;;;5044888;28;20216;-76
2022/01/22 10:37:35;;;;;;;14.48;11.68;;;4.50;99.90;;;;;;5045704;28;20198;-75
2022/01/22 10:40:25;;;;;;;14.88;12.23;;;4.60;99.90;;;;;;5044894;28;20205;-75
2022/01/22 10:43:10;;;;;;;14.55;11.48;;;4.60;99.90;;;;;;5046230;28;20224;-78
2022/01/22 10:45:40;;;;;;;13.18;11.25;;;4.60;99.90;;;;;;5041165;28;20679;-76
2022/01/22 10:48:21;;;;;;;12.70;11.40;;;4.60;99.90;;;;;;5042960;28;20200;-79
2022/01/22 10:51:01;;;;;;;13.80;11.20;;;4.60;99.90;;;;;;5043691;28;20289;-80
2022/01/22 10:53:36;;;;;;;16.55;11.02;;;4.50;99.90;;;;;;5045544;28;20199;-76
2022/01/22 10:56:05;;;;;;;13.75;11.65;;;4.60;99.90;;;;;;5043246;28;20322;-76
2022/01/22 10:58:33;;;;;;;11.63;10.40;;;4.50;99.90;;;;;;5045626;28;20286;-76
2022/01/22 11:01:02;;;;;;;12.65;11.32;;;4.50;99.90;;;;;;5045039;28;20220;-77
2022/01/22 11:03:31;;;;;;;12.40;11.10;;;4.40;99.90;;;;;;5044722;28;20200;-79
2022/01/22 11:06:03;;;;;;;12.02;9.77;;;4.40;99.90;;;;;;5042571;28;20672;-78
2022/01/22 11:08:31;;;;;;;11.82;10.07;;;4.40;99.90;;;;;;5043281;28;20613;-79
2022/01/22 11:10:57;;;;;;;10.75;9.30;;;4.50;99.90;;;;;;5044001;28;20720;-78
2022/01/22 11:13:25;;;;;;;11.80;10.00;;;4.50;99.90;;;;;;5045298;28;20223;-78
2022/01/22 11:15:54;;;;;;;11.35;10.18;;;4.60;99.90;;;;;;5042872;28;20251;-78
2022/01/22 11:18:22;;;;;;;10.95;9.32;;;4.70;99.90;;;;;;5041435;28;20193;-78
2022/01/22 11:20:53;;;;;;;12.23;10.63;;;4.70;99.90;;;;;;5045065;28;20219;-79
2022/01/22 11:23:21;;;;;;;10.63;9.48;;;4.70;99.90;;;;;;5044514;28;20650;-78
2022/01/22 11:25:48;;;;;;;11.82;9.57;;;4.80;99.90;;;;;;5041810;28;20248;-78
2022/01/22 11:28:16;;;;;;;13.98;10.60;;;4.80;99.90;;;;;;5029430;28;20205;-77
2022/01/22 11:30:47;;;;;;;11.63;8.70;;;4.80;99.90;;;;;;5031106;28;20296;-76
2022/01/22 11:33:19;;;;;;;12.63;9.90;;;4.90;99.90;;;;;;5031956;28;20198;-79
2022/01/22 11:35:56;;;;;;;12.27;9.27;;;4.90;99.90;;;;;;5030979;28;20233;-76
2022/01/22 11:38:29;;;;;;;10.65;9.60;;;5.00;99.90;;;;;;5028240;28;20300;-76
2022/01/22 11:41:07;;;;;;;10.50;9.38;;;5.00;99.90;;;;;;5031755;28;20549;-75
2022/01/22 11:44:04;;;;;;;11.32;9.68;;;5.10;99.90;;;;;;5031919;28;20197;-79
2022/01/22 11:46:35;;;;;;;10.65;8.55;;;5.20;99.90;;;;;;5017179;28;20774;-77
2022/01/22 11:49:29;;;;;;;10.30;9.25;;;5.20;99.90;;;;;;5028832;28;20537;-77
2022/01/22 11:52:25;;;;;;;15.95;11.32;;;5.10;99.90;;;;;;5025780;28;20221;-75
2022/01/22 11:54:53;;;;;;;10.32;9.23;;;5.10;99.90;;;;;;5030028;28;20283;-78
2022/01/22 11:57:22;;;;;;;10.55;8.85;;;5.10;99.90;;;;;;5029264;28;20286;-76
2022/01/22 11:59:50;;;;;;;13.02;10.07;;;5.10;99.90;;;;;;5029535;28;20210;-76
2022/01/22 12:02:18;;;;;;;10.70;7.78;;;5.20;99.90;;;;;;5029815;28;20743;-75
2022/01/22 12:04:59;;;;;;;9.70;8.75;;;5.20;99.90;;;;;;5030269;28;20204;-77
2022/01/22 12:07:29;;;;;;;12.90;8.88;;;5.30;99.90;;;;;;5031505;28;20202;-76
2022/01/22 12:10:35;;;;;;;13.07;11.35;;;5.30;99.90;;;;;;5028152;28;20314;-78
2022/01/22 12:16:49;;;;;;;12.85;8.40;;;5.30;99.90;;;;;;4985611;28;20290;-73
2022/01/22 12:20:03;;;;;;;9.00;8.10;;;5.40;99.90;;;;;;5029539;28;20198;-75
2022/01/22 12:22:32;;;;;;;11.57;8.38;;;5.50;99.90;;;;;;4990117;28;20221;-76
2022/01/22 12:25:02;;;;;;;8.70;7.60;;;5.40;99.90;;;;;;5029970;28;20204;-78
2022/01/22 12:27:43;;;;;;;9.73;8.20;;;5.40;99.90;;;;;;5025680;28;20665;-75
2022/01/22 12:30:11;;;;;;;8.50;7.57;;;5.30;99.90;;;;;;5029043;28;20255;-75
2022/01/22 12:32:44;;;;;;;15.45;8.60;;;5.30;99.90;;;;;;5029487;28;20194;-75
2022/01/22 12:35:15;;;;;;;10.43;8.15;;;5.30;99.90;;;;;;5033467;28;20228;-76
2022/01/22 12:37:49;;;;;;;9.60;8.60;;;5.20;99.90;;;;;;5028910;28;20237;-76
2022/01/22 12:40:30;;;;;;;11.50;10.40;;;5.10;99.90;;;;;;5028798;28;20219;-75
2022/01/22 12:45:37;;;;;;;11.40;9.55;;;5.20;99.90;;;;;;5030106;28;20208;-75
2022/01/22 12:48:05;;;;;;;10.85;9.10;;;5.10;99.90;;;;;;5028339;28;20206;-77
2022/01/22 12:50:36;;;;;;;12.45;10.50;;;5.10;99.90;;;;;;5030563;28;20535;-76
2022/01/22 12:53:18;;;;;;;11.77;9.35;;;5.10;99.90;;;;;;5029180;28;20196;-76
2022/01/22 12:58:39;;;;;;;11.88;9.93;;;5.10;99.90;;;;;;5024756;28;20252;-76
2022/01/22 13:01:19;;;;;;;11.00;9.77;;;5.10;99.90;;;;;;5029229;28;20201;-76
2022/01/22 13:03:48;;;;;;;15.48;9.90;;;5.00;99.90;;;;;;5027955;28;20211;-75
2022/01/22 13:06:15;;;;;;;13.40;10.65;;;5.00;99.90;;;;;;5029556;28;20288;-75
2022/01/22 13:08:44;;;;;;;13.68;10.40;;;4.90;99.90;;;;;;5029745;28;20217;-76
2022/01/22 13:11:17;;;;;;;12.80;10.38;;;4.90;99.90;;;;;;5027486;28;20258;-74
2022/01/22 13:13:48;;;;;;;16.40;10.40;;;4.90;99.90;;;;;;5029816;28;20206;-76
2022/01/22 13:16:17;;;;;;;12.63;11.32;;;4.90;99.90;;;;;;5026150;28;20235;-75
2022/01/22 13:18:47;;;;;;;13.57;10.73;;;4.90;99.90;;;;;;5027731;28;21559;-75
2022/01/22 13:21:16;;;;;;;13.02;10.10;;;4.90;99.90;;;;;;5029513;28;20556;-76
2022/01/22 13:23:47;;;;;;;15.68;11.77;;;4.90;99.90;;;;;;5028936;28;20205;-76
2022/01/22 13:26:14;;;;;;;10.93;9.82;;;5.00;99.90;;;;;;5027867;28;20564;-75
2022/01/22 13:28:43;;;;;;;12.85;11.55;;;4.90;99.90;;;;;;5023758;28;20754;-75
2022/01/22 13:31:13;;;;;;;12.38;11.07;;;4.90;99.90;;;;;;5027769;28;20779;-76
2022/01/22 13:33:46;;;;;;;15.30;11.70;;;4.90;99.90;;;;;;5029859;28;20247;-76
2022/01/22 13:36:21;;;;;;;12.10;10.90;;;4.90;99.90;;;;;;5027424;28;20247;-76
2022/01/22 13:39:18;;;;;;;13.60;11.70;;;4.90;99.90;;;;;;5026142;28;20271;-75
2022/01/22 13:47:46;;;;;;;12.63;11.07;;;4.90;99.90;;;;;;5029452;28;20231;-76
2022/01/22 13:50:14;;;;;;;14.60;10.98;;;4.80;99.90;;;;;;5020487;28;20680;-77
2022/01/22 13:52:43;;;;;;;13.13;11.30;;;4.80;99.90;;;;;;5029496;28;20293;-76
2022/01/22 13:55:12;;;;;;;13.23;10.77;;;4.80;99.90;;;;;;5027535;28;20201;-76
2022/01/22 13:57:39;;;;;;;14.40;12.07;;;4.90;99.90;;;;;;5034041;28;20228;-76
2022/01/22 14:00:12;;;;;;;13.98;10.43;;;4.90;99.90;;;;;;5028063;28;20215;-75
2022/01/22 14:03:08;;;;;;;14.45;11.68;;;4.90;99.90;;;;;;5024384;28;20201;-75
2022/01/22 14:05:35;;;;;;;17.25;12.63;;;5.00;99.90;;;;;;5028287;28;20232;-75
2022/01/22 14:08:05;;;;;;;14.10;11.45;;;5.00;99.90;;;;;;5025216;28;20204;-76
2022/01/22 14:10:35;;;;;;;14.18;11.43;;;5.00;99.90;;;;;;5027072;28;20219;-75
2022/01/22 14:13:07;;;;;;;15.90;12.35;;;5.10;99.90;;;;;;5028814;28;20284;-75
2022/01/22 14:15:39;;;;;;;13.55;12.15;;;5.00;99.90;;;;;;5025702;28;20635;-76
2022/01/22 14:18:13;;;;;;;15.38;12.10;;;5.00;99.90;;;;;;5026591;28;20232;-75
2022/01/22 14:20:42;;;;;;;13.23;11.90;;;5.00;99.90;;;;;;5028765;28;20244;-76